createdAt,value
2019-02-21T00:02:55.358Z,102356.24
2019-02-21T00:07:59.552Z,102352.59
2019-02-21T00:13:03.963Z,102363.37
2019-02-21T00:18:08.266Z,102363.62
2019-02-21T00:23:12.224Z,102367.43
2019-02-21T00:28:16.116Z,102373.83
2019-02-21T00:33:20.084Z,102384.70
2019-02-21T00:38:24.304Z,102384.61
2019-02-21T00:43:28.250Z,102383.30
2019-02-21T00:48:32.256Z,102376.36
2019-02-21T00:53:36.081Z,102387.50
2019-02-21T00:58:40.472Z,102389.87
2019-02-21T01:03:46.105Z,102395.80
2019-02-21T01:08:50.244Z,102408.70
2019-02-21T01:13:54.152Z,102408.16
2019-02-21T01:18:58.050Z,102404.20
2019-02-21T01:24:04.739Z,102412.84
2019-02-21T01:29:07.758Z,102426.63
2019-02-21T01:34:11.626Z,102423.53
2019-02-21T01:39:15.598Z,102420.45
2019-02-21T01:44:19.532Z,102422.59
2019-02-21T01:49:23.549Z,102420.82
2019-02-21T01:54:27.551Z,102420.88
2019-02-21T01:59:31.510Z,102429.45
2019-02-21T02:04:35.388Z,102427.66
2019-02-21T02:09:39.282Z,102424.59
2019-02-21T02:14:43.298Z,102426.67
2019-02-21T02:19:47.296Z,102427.14
2019-02-21T02:24:51.219Z,102427.55
2019-02-21T02:29:58.270Z,102417.56
2019-02-21T02:35:02.186Z,102413.64
2019-02-21T02:40:06.423Z,102412.70
2019-02-21T02:45:10.337Z,102414.41
2019-02-21T02:50:14.128Z,102413.04
2019-02-21T02:55:18.233Z,102409.03
2019-02-21T03:00:22.123Z,102405.46
2019-02-21T03:05:26.270Z,102406.52
2019-02-21T03:10:33.284Z,102409.27
2019-02-21T03:15:37.169Z,102405.61
2019-02-21T03:20:43.847Z,102405.89
2019-02-21T03:25:47.839Z,102409.80
2019-02-21T03:30:51.727Z,102411.84
2019-02-21T03:35:55.799Z,102412.12
2019-02-21T03:40:59.821Z,102410.63
2019-02-21T03:46:03.724Z,102412.94
2019-02-21T03:51:07.751Z,102409.42
2019-02-21T03:56:11.554Z,102409.25
2019-02-21T04:01:15.538Z,102409.22
2019-02-21T04:06:19.470Z,102407.45
2019-02-21T04:11:23.384Z,102393.92
2019-02-21T04:16:27.467Z,102397.20
2019-02-21T04:21:31.356Z,102397.00
2019-02-21T04:26:35.183Z,102395.50
2019-02-21T04:31:39.134Z,102395.89
2019-02-21T04:36:42.962Z,102402.65
2019-02-21T04:41:46.870Z,102398.16
2019-02-21T04:46:50.766Z,102394.11
2019-02-21T04:51:54.659Z,102394.85
2019-02-21T04:57:00.192Z,102397.03
2019-02-21T05:02:04.082Z,102393.91
2019-02-21T05:07:07.958Z,102395.20
2019-02-21T05:12:12.016Z,102401.13
2019-02-21T05:17:15.999Z,102396.77
2019-02-21T05:22:19.889Z,102399.30
2019-02-21T05:27:28.228Z,102400.52
2019-02-21T05:32:42.255Z,102405.96
2019-02-21T05:38:07.670Z,102404.48
2019-02-21T05:43:31.149Z,102401.45
2019-02-21T05:49:02.431Z,102411.70
2019-02-21T05:54:17.065Z,102415.95
2019-02-21T05:59:33.687Z,102410.19
2019-02-21T06:04:56.644Z,102405.31
2019-02-21T06:10:11.855Z,102412.69
2019-02-21T06:15:37.568Z,102396.16
2019-02-21T06:21:03.424Z,102387.84
2019-02-21T06:26:39.533Z,102380.17
2019-02-21T06:31:43.667Z,102384.80
2019-02-21T06:36:47.554Z,102392.68
2019-02-21T06:41:59.093Z,102391.86
2019-02-21T06:46:57.158Z,102391.52
2019-02-21T06:52:01.058Z,102387.62
2019-02-21T06:57:05.046Z,102382.04
2019-02-21T07:02:08.964Z,102392.02
2019-02-21T07:07:12.818Z,102415.66
2019-02-21T07:12:16.840Z,102421.77
2019-02-21T07:17:20.690Z,102427.09
2019-02-21T07:22:24.730Z,102432.54
2019-02-21T07:27:28.940Z,102434.59
2019-02-21T07:32:32.832Z,102447.99
2019-02-21T07:37:36.816Z,102440.94
2019-02-21T07:42:40.658Z,102456.60
2019-02-21T07:47:44.556Z,102463.77
2019-02-21T07:52:48.466Z,102473.58
2019-02-21T07:57:52.490Z,102486.44
2019-02-21T08:02:56.435Z,102495.75
2019-02-21T08:08:00.362Z,102491.21
2019-02-21T08:13:04.339Z,102486.62
2019-02-21T08:18:08.352Z,102487.53
2019-02-21T08:23:12.223Z,102490.73
2019-02-21T08:28:16.106Z,102491.30
2019-02-21T08:33:58.407Z,102493.78
2019-02-21T08:38:56.995Z,102487.50
2019-02-21T08:44:00.937Z,102499.14
2019-02-21T08:49:04.876Z,102505.53
2019-02-21T08:54:11.301Z,102521.84
2019-02-21T08:59:14.474Z,102534.69
2019-02-21T09:04:27.364Z,102545.03
2019-02-21T09:09:24.182Z,102540.42
2019-02-21T09:14:28.094Z,102542.81
2019-02-21T09:19:32.105Z,102538.45
2019-02-21T09:24:40.103Z,102539.11
2019-02-21T09:29:41.566Z,102544.06
2019-02-21T09:34:45.529Z,102540.14
2019-02-21T09:39:49.442Z,102549.99
2019-02-21T09:44:53.242Z,102557.27
2019-02-21T09:49:57.081Z,102554.55
2019-02-21T09:55:00.918Z,102558.06
2019-02-21T10:00:05.412Z,102567.48
2019-02-21T10:05:09.370Z,102563.80
2019-02-21T10:10:15.552Z,102569.91
2019-02-21T10:15:19.507Z,102581.23
2019-02-21T10:20:23.430Z,102581.97
2019-02-21T10:25:28.519Z,102574.83
2019-02-21T10:30:32.509Z,102584.23
2019-02-21T10:35:36.517Z,102601.21
2019-02-21T10:40:40.448Z,102593.80
2019-02-21T10:45:47.851Z,102590.11
2019-02-21T10:50:49.982Z,102595.80
2019-02-21T10:55:54.051Z,102588.33
2019-02-21T11:00:58.140Z,102584.62
2019-02-21T11:06:02.150Z,102567.86
2019-02-21T11:11:06.112Z,102570.08
2019-02-21T11:16:10.018Z,102570.98
2019-02-21T11:21:13.882Z,102566.03
2019-02-21T11:26:17.828Z,102556.13
2019-02-21T11:31:21.794Z,102545.19
2019-02-21T11:36:25.688Z,102550.06
2019-02-21T11:41:29.650Z,102554.39
2019-02-21T11:46:33.662Z,102549.86
2019-02-21T11:51:37.579Z,102556.97
2019-02-21T11:56:41.604Z,102552.70
2019-02-21T12:01:45.439Z,102540.70
2019-02-21T12:06:49.424Z,102544.70
2019-02-21T12:11:53.382Z,102550.28
2019-02-21T12:16:57.255Z,102550.98
2019-02-21T12:22:01.273Z,102558.87
2019-02-21T12:27:05.246Z,102552.81
2019-02-21T12:32:09.160Z,102558.97
2019-02-21T12:37:13.053Z,102567.72
2019-02-21T12:42:17.038Z,102562.53
2019-02-21T12:47:20.913Z,102567.77
2019-02-21T12:52:24.822Z,102570.49
2019-02-21T12:57:28.836Z,102571.38
2019-02-21T13:02:33.133Z,102572.36
2019-02-21T13:07:37.144Z,102557.94
2019-02-21T13:12:40.982Z,102547.53
2019-02-21T13:17:45.023Z,102547.78
2019-02-21T13:22:48.829Z,102550.62
2019-02-21T13:27:52.739Z,102554.64
2019-02-21T13:32:56.560Z,102545.00
2019-02-21T13:38:00.543Z,102549.82
2019-02-21T13:43:04.419Z,102554.66
2019-02-21T13:48:11.108Z,102552.49
2019-02-21T13:53:14.961Z,102551.13
2019-02-21T13:58:18.814Z,102539.78
2019-02-21T14:03:22.936Z,102546.26
2019-02-21T14:08:27.332Z,102547.20
2019-02-21T14:13:31.168Z,102541.52
2019-02-21T14:18:35.152Z,102555.55
2019-02-21T14:23:39.068Z,102559.95
2019-02-21T14:28:43.020Z,102570.48
2019-02-21T14:33:46.978Z,102575.64
2019-02-21T14:38:50.887Z,102578.67
2019-02-21T14:43:54.772Z,102581.23
2019-02-21T14:48:58.618Z,102582.98
2019-02-21T14:54:02.530Z,102594.81
2019-02-21T14:59:06.418Z,102592.67
2019-02-21T15:04:10.452Z,102593.09
2019-02-21T15:09:14.646Z,102592.64
2019-02-21T15:14:18.715Z,102593.07
2019-02-21T15:19:22.668Z,102595.66
2019-02-21T15:24:26.686Z,102589.56
2019-02-21T15:29:30.598Z,102595.72
2019-02-21T15:34:34.544Z,102602.70
2019-02-21T15:39:38.683Z,102609.20
2019-02-21T15:44:42.759Z,102611.17
2019-02-21T15:49:46.750Z,102611.15
2019-02-21T15:54:50.738Z,102614.99
2019-02-21T15:59:54.634Z,102612.73
2019-02-21T16:04:58.770Z,102620.97
2019-02-21T16:10:06.874Z,102632.20
2019-02-21T16:15:11.855Z,102636.37
2019-02-21T16:20:16.111Z,102643.64
2019-02-21T16:25:20.842Z,102651.00
2019-02-21T16:30:25.184Z,102652.77
2019-02-21T16:35:29.275Z,102649.73
2019-02-21T16:40:33.102Z,102660.64
2019-02-21T16:45:43.641Z,102674.48
2019-02-21T16:50:42.788Z,102670.80
2019-02-21T16:55:46.694Z,102673.77
2019-02-21T17:00:56.497Z,102685.55
2019-02-21T17:05:56.313Z,102698.14
2019-02-21T17:11:00.295Z,102711.28
2019-02-21T17:16:05.180Z,102712.55
2019-02-21T17:21:09.111Z,102725.56
2019-02-21T17:26:13.421Z,102735.92
2019-02-21T17:31:17.337Z,102740.19
2019-02-21T17:36:22.310Z,102748.94
2019-02-21T17:41:26.176Z,102750.33
2019-02-21T17:46:30.536Z,102762.91
2019-02-21T17:51:34.762Z,102768.44
2019-02-21T17:56:38.739Z,102773.22
2019-02-21T18:01:42.818Z,102770.89
2019-02-21T18:06:47.073Z,102770.34
2019-02-21T18:11:51.731Z,102778.56
2019-02-21T18:16:55.782Z,102776.33
2019-02-21T18:21:59.869Z,102790.22
